AirNav   Phillips 66 Aviation Fuel
 
 849 users online  

FD63 Squires Aviation Ranch Airport
Jasper, Florida, USA

GOING TO JASPER?


FAA INFORMATION EFFECTIVE 12 SEPTEMBER 2019

Location

FAA Identifier: FD63
Lat/Long: 30-30-46.0000N 083-11-54.0000W
30-30.766667N 083-11.900000W
30.5127778,-83.1983333
(estimated)
Elevation: 110 ft. / 34 m (estimated)
From city: 18 miles NE of JASPER, FL
Time zone: UTC -4 (UTC -5 during Standard Time)
Zip code: 32053

Airport Operations

Airport use: Private use. Permission required prior to landing
Activation date: 06/2006
Control tower: no
ARTCC: JACKSONVILLE CENTER
FSS: GAINESVILLE FLIGHT SERVICE STATION
Attendance: 0900-1700
Wind indicator: yes
Segmented circle: yes

Airport Communications

WX AWOS-3 at 24J (16 nm SE): 118.225 (386-362-1731)
WX ASOS at VLD (17 nm N): 126.225 (229-245-8746)

Nearby radio navigation aids

VOR radial/distance  VOR name  Freq  Var
OTKr167/16.6VALDOSTA VOR/DME114.8002W
GEFr093/30.3GREENVILLE VORTAC109.0001E
TAYr274/33.4TAYLOR VORTAC112.9003W

 
NDB name  Hdg/Dist  Freq  Var  ID
LAKE CITY304/37.620403WLCQ .-.. -.-. --.-
HOMERVILLE220/39.320906WHOE .... --- .

Airport Services

Runway Information

Runway 18/36

Dimensions: 2600 x 200 ft. / 792 x 61 m
Surface: turf
RUNWAY 18  RUNWAY 36
Traffic pattern: leftleft
Obstructions: 40 ft. pline, 500 ft. from runway40 ft. trees, 500 ft. from runway

Airport Ownership and Management from official FAA records

Ownership: Privately-owned
Owner: ROBIN SQUIRES
3414 NW 44 ST
JASPER, FL 32052
Phone (850) 672-0007
Manager: BUFFEY SQUIRES
3414 NW 44 ST
JASPER, FL 32052
Phone (850) 672-0006
850-672-0007

Airport Operational Statistics

Aircraft based on the field: 8
Single engine airplanes: 6
Multi engine airplanes: 2
    

Additional Remarks

FOR CD CTC JACKSONVILLE ARTCC AT 904-845-1592.

Instrument Procedures

There are no published instrument procedures at FD63.

Some nearby airports with instrument procedures:

24J - Suwannee County Airport (16 nm SE)
KVLD - Valdosta Regional Airport (17 nm N)
4J5 - Quitman Brooks County Airport (27 nm NW)
KVAD - Moody Air Force Base (27 nm N)
40J - Perry-Foley Airport (33 nm SW)
 
Loc | Ops | Rwys | IFR | FBO | Links
Com | Nav | Svcs | Stats | Notes
Area around FD63 (Squires Aviation Ranch Airport)
 
Road maps at: MapQuest Bing Google
 
Aerial photo
WARNING: Photo may not be current or correct
Aerial photo of FD63 (Squires Aviation Ranch Airport)
Photo taken 18-Oct-2009
looking south.

Do you have a better or more recent aerial photo of Squires Aviation Ranch Airport that you would like to share? If so, please send us your photo.

 
Sectional chart

 
Airport distance calculator
Flying to Squires Aviation Ranch Airport? Find the distance to fly.

From to FD63

Sunrise and sunset
Times for 21-Sep-2019
 Local
(UTC-4)
 Zulu
(UTC)
Morning civil twilight06:5710:57
Sunrise07:2111:21
Sunset19:3023:30
Evening civil twilight19:5423:54

Current date and time
Zulu (UTC)  22-Sep-2019 00:34:44
Local (UTC-4)  21-Sep-2019 20:34:44
 
METAR
K24J 
16nm SE 
220015Z AUTO 07005G10KT 10SM FEW042 SCT055 BKN060 26/17 A3017 RMK A01
KVLD 
16nm N 
212353Z AUTO 13007KT 10SM CLR 26/17 A3016 RMK AO2 SLP220 T02610167 10317 20261 53005
KVAD 
27nm N 
212356Z AUTO 11006KT 10SM CLR 26/18 A3016 RMK AO2 SLP214 T02570178 10315 20257 53006 $
TAF
KVLD 
16nm N 
211734Z 2118/2218 07010G15KT P6SM SCT050 FM220000 06003KT P6SM FEW030 FM221500 09006KT P6SM FEW050
NOTAMs
Click for the latest NOTAMs
NOTAMs are issued by the DoD/FAA and will open in a separate window not controlled by AirNav.

 

 
 

Would you like to see your business listed on this page?

 If your business provides an interesting product or service to pilots, flight crews, aircraft, or users of the Squires Aviation Ranch Airport, you should consider listing it here.  To start the listing process, click on the button below
 
Add a business
 

Other Pages about Squires Aviation Ranch Airport

Update a link
 
Copyright © AirNav, LLC. All rights reserved. Privacy Policy  Contact